sensor_id;sensor_type;location;lat;lon;timestamp;temperature;humidity
262;DHT22;114;48.260;10.988;2022-07-10T00:01:54;16.60;28.60
262;DHT22;114;48.260;10.988;2022-07-10T00:04:19;16.60;35.90
262;DHT22;114;48.260;10.988;2022-07-10T00:06:45;16.50;36.50
262;DHT22;114;48.260;10.988;2022-07-10T00:09:13;16.40;38.50
262;DHT22;114;48.260;10.988;2022-07-10T00:11:40;16.40;40.40
262;DHT22;114;48.260;10.988;2022-07-10T00:14:06;16.30;42.10
262;DHT22;114;48.260;10.988;2022-07-10T00:16:32;16.30;44.60
262;DHT22;114;48.260;10.988;2022-07-10T00:18:57;16.20;46.10
262;DHT22;114;48.260;10.988;2022-07-10T00:21:23;16.20;51.60
262;DHT22;114;48.260;10.988;2022-07-10T00:23:49;16.10;56.00
262;DHT22;114;48.260;10.988;2022-07-10T00:26:15;16.10;54.60
262;DHT22;114;48.260;10.988;2022-07-10T00:28:42;16.00;52.10
262;DHT22;114;48.260;10.988;2022-07-10T00:31:07;16.00;54.10
262;DHT22;114;48.260;10.988;2022-07-10T00:33:36;15.90;57.00
262;DHT22;114;48.260;10.988;2022-07-10T00:36:04;16.00;58.30
262;DHT22;114;48.260;10.988;2022-07-10T00:38:32;15.90;52.80
262;DHT22;114;48.260;10.988;2022-07-10T00:41:00;15.90;55.00
262;DHT22;114;48.260;10.988;2022-07-10T00:43:26;15.80;58.00
262;DHT22;114;48.260;10.988;2022-07-10T00:45:52;15.80;63.20
262;DHT22;114;48.260;10.988;2022-07-10T00:48:17;15.70;63.80
262;DHT22;114;48.260;10.988;2022-07-10T00:50:44;15.70;68.10
262;DHT22;114;48.260;10.988;2022-07-10T00:53:12;15.70;69.90
262;DHT22;114;48.260;10.988;2022-07-10T00:55:39;15.70;71.90
262;DHT22;114;48.260;10.988;2022-07-10T00:58:07;15.60;71.70
262;DHT22;114;48.260;10.988;2022-07-10T01:00:34;15.60;71.90
262;DHT22;114;48.260;10.988;2022-07-10T01:03:05;15.70;74.90
262;DHT22;114;48.260;10.988;2022-07-10T01:05:31;15.70;78.20
262;DHT22;114;48.260;10.988;2022-07-10T01:07:57;15.70;78.50
262;DHT22;114;48.260;10.988;2022-07-10T01:10:23;15.60;79.00
262;DHT22;114;48.260;10.988;2022-07-10T01:12:49;15.60;83.80
262;DHT22;114;48.260;10.988;2022-07-10T01:15:15;15.60;86.90
262;DHT22;114;48.260;10.988;2022-07-10T01:17:41;15.50;90.00
262;DHT22;114;48.260;10.988;2022-07-10T01:20:08;15.50;90.90
262;DHT22;114;48.260;10.988;2022-07-10T01:22:36;15.50;90.30
262;DHT22;114;48.260;10.988;2022-07-10T01:25:02;15.40;88.50
262;DHT22;114;48.260;10.988;2022-07-10T01:27:28;15.40;89.00
262;DHT22;114;48.260;10.988;2022-07-10T01:29:54;15.30;90.50
262;DHT22;114;48.260;10.988;2022-07-10T01:32:20;15.30;90.50
262;DHT22;114;48.260;10.988;2022-07-10T01:34:45;15.20;92.30
262;DHT22;114;48.260;10.988;2022-07-10T01:37:13;15.20;93.80
262;DHT22;114;48.260;10.988;2022-07-10T01:39:39;15.10;94.40
262;DHT22;114;48.260;10.988;2022-07-10T01:42:05;15.10;95.50
262;DHT22;114;48.260;10.988;2022-07-10T01:44:30;15.10;94.70
262;DHT22;114;48.260;10.988;2022-07-10T01:46:56;15.10;95.40
262;DHT22;114;48.260;10.988;2022-07-10T01:49:22;15.10;96.00
262;DHT22;114;48.260;10.988;2022-07-10T01:51:48;15.10;95.50
262;DHT22;114;48.260;10.988;2022-07-10T01:54:14;15.10;94.10
262;DHT22;114;48.260;10.988;2022-07-10T01:56:40;15.00;94.30
262;DHT22;114;48.260;10.988;2022-07-10T01:59:06;15.00;95.70
262;DHT22;114;48.260;10.988;2022-07-10T02:01:32;15.10;94.90
262;DHT22;114;48.260;10.988;2022-07-10T02:03:58;15.10;93.40
262;DHT22;114;48.260;10.988;2022-07-10T02:06:43;15.10;93.80
262;DHT22;114;48.260;10.988;2022-07-10T02:09:09;14.90;94.50
262;DHT22;114;48.260;10.988;2022-07-10T02:11:35;15.00;95.90
262;DHT22;114;48.260;10.988;2022-07-10T02:14:01;14.90;96.70
262;DHT22;114;48.260;10.988;2022-07-10T02:16:26;14.80;97.30
262;DHT22;114;48.260;10.988;2022-07-10T02:18:52;14.80;97.50
262;DHT22;114;48.260;10.988;2022-07-10T02:21:18;14.70;97.60
262;DHT22;114;48.260;10.988;2022-07-10T02:23:44;14.70;98.30
262;DHT22;114;48.260;10.988;2022-07-10T02:26:10;14.60;98.50
262;DHT22;114;48.260;10.988;2022-07-10T02:28:36;14.40;99.70
262;DHT22;114;48.260;10.988;2022-07-10T02:31:01;14.50;99.90
262;DHT22;114;48.260;10.988;2022-07-10T02:33:27;14.40;99.90
262;DHT22;114;48.260;10.988;2022-07-10T02:35:53;14.40;99.90
262;DHT22;114;48.260;10.988;2022-07-10T02:38:19;14.30;99.90
262;DHT22;114;48.260;10.988;2022-07-10T02:40:44;14.40;99.90
262;DHT22;114;48.260;10.988;2022-07-10T02:43:10;14.20;99.90
262;DHT22;114;48.260;10.988;2022-07-10T02:45:36;14.20;99.90
262;DHT22;114;48.260;10.988;2022-07-10T02:48:02;14.20;99.90
262;DHT22;114;48.260;10.988;2022-07-10T02:50:28;14.10;99.90
262;DHT22;114;48.260;10.988;2022-07-10T02:52:54;14.20;99.90
262;DHT22;114;48.260;10.988;2022-07-10T02:55:20;14.10;99.90
262;DHT22;114;48.260;10.988;2022-07-10T02:57:46;14.20;99.90
262;DHT22;114;48.260;10.988;2022-07-10T03:00:12;14.20;99.90
262;DHT22;114;48.260;10.988;2022-07-10T03:02:37;14.20;99.90
262;DHT22;114;48.260;10.988;2022-07-10T03:05:03;14.20;99.90
262;DHT22;114;48.260;10.988;2022-07-10T03:07:29;14.10;99.90
262;DHT22;114;48.260;10.988;2022-07-10T03:09:55;14.00;99.90
262;DHT22;114;48.260;10.988;2022-07-10T03:12:21;14.00;99.90
262;DHT22;114;48.260;10.988;2022-07-10T03:14:47;14.00;99.90
262;DHT22;114;48.260;10.988;2022-07-10T03:17:13;14.00;99.90
262;DHT22;114;48.260;10.988;2022-07-10T03:19:38;13.90;99.90
262;DHT22;114;48.260;10.988;2022-07-10T03:22:04;13.90;99.90
262;DHT22;114;48.260;10.988;2022-07-10T03:24:30;13.90;99.90
262;DHT22;114;48.260;10.988;2022-07-10T03:26:56;13.90;99.90
262;DHT22;114;48.260;10.988;2022-07-10T03:29:22;14.00;99.90
262;DHT22;114;48.260;10.988;2022-07-10T03:31:49;14.00;99.90
262;DHT22;114;48.260;10.988;2022-07-10T03:34:15;14.00;99.90
262;DHT22;114;48.260;10.988;2022-07-10T03:36:41;14.00;99.90
262;DHT22;114;48.260;10.988;2022-07-10T03:39:07;14.10;99.90
262;DHT22;114;48.260;10.988;2022-07-10T03:41:32;14.00;99.90
262;DHT22;114;48.260;10.988;2022-07-10T03:43:58;14.00;99.90
262;DHT22;114;48.260;10.988;2022-07-10T03:46:24;14.00;99.90
262;DHT22;114;48.260;10.988;2022-07-10T03:48:50;13.90;99.90
262;DHT22;114;48.260;10.988;2022-07-10T03:51:17;13.90;99.90
262;DHT22;114;48.260;10.988;2022-07-10T03:53:43;13.90;99.90
262;DHT22;114;48.260;10.988;2022-07-10T03:56:09;13.90;99.90
262;DHT22;114;48.260;10.988;2022-07-10T03:58:55;13.90;99.70
262;DHT22;114;48.260;10.988;2022-07-10T04:01:20;13.90;99.90
262;DHT22;114;48.260;10.988;2022-07-10T04:03:46;13.90;99.90
262;DHT22;114;48.260;10.988;2022-07-10T04:06:12;13.90;99.90
262;DHT22;114;48.260;10.988;2022-07-10T04:08:38;13.90;99.90
262;DHT22;114;48.260;10.988;2022-07-10T04:11:07;13.90;99.90
262;DHT22;114;48.260;10.988;2022-07-10T04:13:33;13.80;99.90
262;DHT22;114;48.260;10.988;2022-07-10T04:15:58;13.80;99.90
262;DHT22;114;48.260;10.988;2022-07-10T04:18:24;13.80;99.90
262;DHT22;114;48.260;10.988;2022-07-10T04:20:50;13.80;99.90
262;DHT22;114;48.260;10.988;2022-07-10T04:23:16;13.80;99.90
262;DHT22;114;48.260;10.988;2022-07-10T04:25:42;13.80;99.90
262;DHT22;114;48.260;10.988;2022-07-10T04:28:11;13.80;99.90
262;DHT22;114;48.260;10.988;2022-07-10T04:30:37;13.90;99.90
262;DHT22;114;48.260;10.988;2022-07-10T04:33:02;13.90;99.90
262;DHT22;114;48.260;10.988;2022-07-10T04:35:31;13.90;99.90
262;DHT22;114;48.260;10.988;2022-07-10T04:37:57;14.00;99.10
262;DHT22;114;48.260;10.988;2022-07-10T04:40:24;14.00;99.10
262;DHT22;114;48.260;10.988;2022-07-10T04:42:49;14.10;98.40
262;DHT22;114;48.260;10.988;2022-07-10T04:45:15;14.20;97.70
262;DHT22;114;48.260;10.988;2022-07-10T04:47:41;14.20;96.60
262;DHT22;114;48.260;10.988;2022-07-10T04:50:07;14.20;96.40
262;DHT22;114;48.260;10.988;2022-07-10T04:52:33;14.20;95.60
262;DHT22;114;48.260;10.988;2022-07-10T04:54:59;14.30;95.60
262;DHT22;114;48.260;10.988;2022-07-10T04:57:25;14.30;95.30
262;DHT22;114;48.260;10.988;2022-07-10T04:59:51;14.30;95.90
262;DHT22;114;48.260;10.988;2022-07-10T05:02:17;14.40;95.80
262;DHT22;114;48.260;10.988;2022-07-10T05:04:42;14.50;95.50
262;DHT22;114;48.260;10.988;2022-07-10T05:07:09;14.50;94.20
262;DHT22;114;48.260;10.988;2022-07-10T05:09:35;14.60;93.10
262;DHT22;114;48.260;10.988;2022-07-10T05:12:01;14.70;91.50
262;DHT22;114;48.260;10.988;2022-07-10T05:14:27;14.70;91.30
262;DHT22;114;48.260;10.988;2022-07-10T05:16:53;14.70;91.00
262;DHT22;114;48.260;10.988;2022-07-10T05:19:18;14.70;90.40
262;DHT22;114;48.260;10.988;2022-07-10T05:21:45;14.80;90.90
262;DHT22;114;48.260;10.988;2022-07-10T05:24:10;14.80;86.10
262;DHT22;114;48.260;10.988;2022-07-10T05:26:36;14.80;86.30
262;DHT22;114;48.260;10.988;2022-07-10T05:29:02;14.80;85.30
262;DHT22;114;48.260;10.988;2022-07-10T05:31:28;14.90;82.60
262;DHT22;114;48.260;10.988;2022-07-10T05:33:54;14.70;84.20
262;DHT22;114;48.260;10.988;2022-07-10T05:36:20;14.70;85.00
262;DHT22;114;48.260;10.988;2022-07-10T05:38:46;14.70;84.00
262;DHT22;114;48.260;10.988;2022-07-10T05:41:12;14.70;86.60
262;DHT22;114;48.260;10.988;2022-07-10T05:43:38;14.80;86.40
262;DHT22;114;48.260;10.988;2022-07-10T05:46:04;14.80;84.40
262;DHT22;114;48.260;10.988;2022-07-10T05:48:31;14.80;83.20
262;DHT22;114;48.260;10.988;2022-07-10T05:50:57;14.70;80.30
262;DHT22;114;48.260;10.988;2022-07-10T05:53:23;14.70;81.20
262;DHT22;114;48.260;10.988;2022-07-10T05:55:49;14.70;79.80
262;DHT22;114;48.260;10.988;2022-07-10T05:58:16;14.70;81.40
262;DHT22;114;48.260;10.988;2022-07-10T06:00:46;14.70;78.60
262;DHT22;114;48.260;10.988;2022-07-10T06:03:12;14.80;76.50
262;DHT22;114;48.260;10.988;2022-07-10T06:05:38;14.80;75.70
262;DHT22;114;48.260;10.988;2022-07-10T06:08:04;14.80;75.60
262;DHT22;114;48.260;10.988;2022-07-10T06:10:30;15.00;71.40
262;DHT22;114;48.260;10.988;2022-07-10T06:12:56;15.20;68.30
262;DHT22;114;48.260;10.988;2022-07-10T06:15:24;15.40;63.70
262;DHT22;114;48.260;10.988;2022-07-10T06:17:50;15.50;63.10
262;DHT22;114;48.260;10.988;2022-07-10T06:20:16;15.70;59.60
262;DHT22;114;48.260;10.988;2022-07-10T06:22:42;15.90;57.30
262;DHT22;114;48.260;10.988;2022-07-10T06:25:08;15.90;55.00
262;DHT22;114;48.260;10.988;2022-07-10T06:27:34;15.80;48.60
262;DHT22;114;48.260;10.988;2022-07-10T06:30:01;15.90;50.50
262;DHT22;114;48.260;10.988;2022-07-10T06:32:27;16.00;49.80
262;DHT22;114;48.260;10.988;2022-07-10T06:34:54;16.00;45.30
262;DHT22;114;48.260;10.988;2022-07-10T06:37:20;16.20;45.80
262;DHT22;114;48.260;10.988;2022-07-10T06:39:46;16.30;40.90
262;DHT22;114;48.260;10.988;2022-07-10T06:42:13;16.30;35.90
262;DHT22;114;48.260;10.988;2022-07-10T06:44:43;16.30;32.20
262;DHT22;114;48.260;10.988;2022-07-10T06:47:10;16.30;32.90
262;DHT22;114;48.260;10.988;2022-07-10T06:49:58;16.60;32.50
262;DHT22;114;48.260;10.988;2022-07-10T06:52:24;16.60;28.70
262;DHT22;114;48.260;10.988;2022-07-10T06:54:50;16.70;31.70
262;DHT22;114;48.260;10.988;2022-07-10T06:57:17;16.90;26.90
262;DHT22;114;48.260;10.988;2022-07-10T06:59:45;17.30;24.40
262;DHT22;114;48.260;10.988;2022-07-10T07:02:11;17.40;17.90
262;DHT22;114;48.260;10.988;2022-07-10T07:04:37;17.30;14.00
262;DHT22;114;48.260;10.988;2022-07-10T07:07:04;17.30;16.40
262;DHT22;114;48.260;10.988;2022-07-10T07:09:33;17.20;18.30
262;DHT22;114;48.260;10.988;2022-07-10T07:11:59;17.10;19.90
262;DHT22;114;48.260;10.988;2022-07-10T07:14:25;17.00;18.30
262;DHT22;114;48.260;10.988;2022-07-10T07:16:52;16.90;20.70
262;DHT22;114;48.260;10.988;2022-07-10T07:19:29;16.50;20.50
262;DHT22;114;48.260;10.988;2022-07-10T07:22:06;16.60;21.70
262;DHT22;114;48.260;10.988;2022-07-10T07:24:50;17.20;18.50
262;DHT22;114;48.260;10.988;2022-07-10T07:27:16;17.60;10.20
262;DHT22;114;48.260;10.988;2022-07-10T07:29:41;17.80;14.30
262;DHT22;114;48.260;10.988;2022-07-10T07:32:07;17.90;12.20
262;DHT22;114;48.260;10.988;2022-07-10T07:34:36;17.90;8.30
262;DHT22;114;48.260;10.988;2022-07-10T07:37:05;17.70;8.20
262;DHT22;114;48.260;10.988;2022-07-10T07:39:31;17.40;10.10
262;DHT22;114;48.260;10.988;2022-07-10T07:41:57;17.50;12.00
262;DHT22;114;48.260;10.988;2022-07-10T07:44:23;17.70;10.60
262;DHT22;114;48.260;10.988;2022-07-10T07:46:48;18.10;7.30
262;DHT22;114;48.260;10.988;2022-07-10T07:49:14;18.30;5.30
262;DHT22;114;48.260;10.988;2022-07-10T07:51:40;18.10;6.20
262;DHT22;114;48.260;10.988;2022-07-10T07:54:05;18.40;4.90
262;DHT22;114;48.260;10.988;2022-07-10T07:56:31;18.30;1.00
262;DHT22;114;48.260;10.988;2022-07-10T07:58:57;18.10;1.90
262;DHT22;114;48.260;10.988;2022-07-10T08:01:22;18.10;1.10
262;DHT22;114;48.260;10.988;2022-07-10T08:03:48;17.90;6.70
262;DHT22;114;48.260;10.988;2022-07-10T08:06:14;17.50;4.30
262;DHT22;114;48.260;10.988;2022-07-10T08:08:43;17.80;9.00
262;DHT22;114;48.260;10.988;2022-07-10T08:11:11;17.70;4.80
262;DHT22;114;48.260;10.988;2022-07-10T08:13:36;17.80;3.90
262;DHT22;114;48.260;10.988;2022-07-10T08:16:02;17.50;3.40
262;DHT22;114;48.260;10.988;2022-07-10T08:18:28;17.30;4.60
262;DHT22;114;48.260;10.988;2022-07-10T08:20:53;17.20;5.90
262;DHT22;114;48.260;10.988;2022-07-10T08:23:19;17.30;6.40
262;DHT22;114;48.260;10.988;2022-07-10T08:25:45;17.30;5.50
262;DHT22;114;48.260;10.988;2022-07-10T08:28:10;17.80;2.10
262;DHT22;114;48.260;10.988;2022-07-10T08:30:37;18.50;1.00
262;DHT22;114;48.260;10.988;2022-07-10T08:33:03;18.60;1.00
262;DHT22;114;48.260;10.988;2022-07-10T08:35:30;18.50;1.00
262;DHT22;114;48.260;10.988;2022-07-10T08:37:56;18.50;1.00
262;DHT22;114;48.260;10.988;2022-07-10T08:40:22;18.10;1.00
262;DHT22;114;48.260;10.988;2022-07-10T08:42:48;18.20;1.00
262;DHT22;114;48.260;10.988;2022-07-10T08:45:14;18.30;1.00
262;DHT22;114;48.260;10.988;2022-07-10T08:47:41;18.10;1.00
262;DHT22;114;48.260;10.988;2022-07-10T08:50:28;18.20;1.00
262;DHT22;114;48.260;10.988;2022-07-10T08:55:36;18.50;1.00
262;DHT22;114;48.260;10.988;2022-07-10T08:58:03;18.40;1.00
262;DHT22;114;48.260;10.988;2022-07-10T09:00:30;18.40;1.00
262;DHT22;114;48.260;10.988;2022-07-10T09:02:56;18.60;1.00
262;DHT22;114;48.260;10.988;2022-07-10T09:05:23;18.20;1.00
262;DHT22;114;48.260;10.988;2022-07-10T09:07:49;18.10;1.00
262;DHT22;114;48.260;10.988;2022-07-10T09:10:16;18.20;1.00
262;DHT22;114;48.260;10.988;2022-07-10T09:12:58;18.60;1.00
262;DHT22;114;48.260;10.988;2022-07-10T09:15:28;19.20;1.00
262;DHT22;114;48.260;10.988;2022-07-10T09:18:05;19.80;1.00
262;DHT22;114;48.260;10.988;2022-07-10T09:23:14;19.40;1.00
262;DHT22;114;48.260;10.988;2022-07-10T09:25:42;19.30;1.00
262;DHT22;114;48.260;10.988;2022-07-10T09:28:07;19.90;1.00
262;DHT22;114;48.260;10.988;2022-07-10T09:30:37;19.80;1.00
262;DHT22;114;48.260;10.988;2022-07-10T09:33:23;19.60;1.00
262;DHT22;114;48.260;10.988;2022-07-10T09:35:59;19.20;1.00
262;DHT22;114;48.260;10.988;2022-07-10T09:41:14;19.80;1.00
262;DHT22;114;48.260;10.988;2022-07-10T09:43:48;19.50;1.00
262;DHT22;114;48.260;10.988;2022-07-10T09:46:17;19.60;1.00
262;DHT22;114;48.260;10.988;2022-07-10T09:48:43;19.40;1.00
262;DHT22;114;48.260;10.988;2022-07-10T09:51:11;19.50;1.00
262;DHT22;114;48.260;10.988;2022-07-10T09:53:42;19.70;1.00
262;DHT22;114;48.260;10.988;2022-07-10T09:56:09;19.80;1.00
262;DHT22;114;48.260;10.988;2022-07-10T09:58:36;19.60;1.00
262;DHT22;114;48.260;10.988;2022-07-10T10:01:06;19.40;1.00
262;DHT22;114;48.260;10.988;2022-07-10T10:03:36;19.50;1.00
262;DHT22;114;48.260;10.988;2022-07-10T10:06:11;19.80;1.00
262;DHT22;114;48.260;10.988;2022-07-10T10:08:56;19.50;1.00
262;DHT22;114;48.260;10.988;2022-07-10T10:11:26;19.60;1.00
262;DHT22;114;48.260;10.988;2022-07-10T10:13:52;19.90;1.00
262;DHT22;114;48.260;10.988;2022-07-10T10:16:22;19.80;1.00
262;DHT22;114;48.260;10.988;2022-07-10T10:18:50;20.00;1.00
262;DHT22;114;48.260;10.988;2022-07-10T10:21:36;19.30;1.00
262;DHT22;114;48.260;10.988;2022-07-10T10:24:02;19.20;1.00
262;DHT22;114;48.260;10.988;2022-07-10T10:26:28;19.20;1.00
262;DHT22;114;48.260;10.988;2022-07-10T10:28:59;19.80;1.00
262;DHT22;114;48.260;10.988;2022-07-10T10:31:30;20.50;1.00
262;DHT22;114;48.260;10.988;2022-07-10T10:33:57;20.30;1.00
262;DHT22;114;48.260;10.988;2022-07-10T10:36:45;20.10;1.00
262;DHT22;114;48.260;10.988;2022-07-10T10:49:22;19.80;1.00
262;DHT22;114;48.260;10.988;2022-07-10T10:52:09;19.50;1.00
262;DHT22;114;48.260;10.988;2022-07-10T10:57:23;20.10;1.00
262;DHT22;114;48.260;10.988;2022-07-10T11:00:06;20.80;1.00
262;DHT22;114;48.260;10.988;2022-07-10T11:02:37;21.30;1.00
262;DHT22;114;48.260;10.988;2022-07-10T11:07:56;20.90;1.00
262;DHT22;114;48.260;10.988;2022-07-10T11:10:31;20.00;1.00
262;DHT22;114;48.260;10.988;2022-07-10T11:13:01;20.30;1.00
262;DHT22;114;48.260;10.988;2022-07-10T11:15:28;20.70;1.00
262;DHT22;114;48.260;10.988;2022-07-10T11:20:35;22.00;1.00
262;DHT22;114;48.260;10.988;2022-07-10T11:25:52;21.90;1.00
262;DHT22;114;48.260;10.988;2022-07-10T11:29:11;22.00;1.00
262;DHT22;114;48.260;10.988;2022-07-10T11:31:33;23.10;1.00
262;DHT22;114;48.260;10.988;2022-07-10T11:34:04;23.80;1.00
262;DHT22;114;48.260;10.988;2022-07-10T11:36:30;22.90;1.00
262;DHT22;114;48.260;10.988;2022-07-10T11:39:04;22.10;1.00
262;DHT22;114;48.260;10.988;2022-07-10T11:41:30;22.60;1.00
262;DHT22;114;48.260;10.988;2022-07-10T11:43:57;22.20;1.00
262;DHT22;114;48.260;10.988;2022-07-10T11:46:34;22.40;1.00
262;DHT22;114;48.260;10.988;2022-07-10T11:49:04;22.20;1.00
262;DHT22;114;48.260;10.988;2022-07-10T11:51:33;22.40;1.00
262;DHT22;114;48.260;10.988;2022-07-10T11:54:07;21.80;1.00
262;DHT22;114;48.260;10.988;2022-07-10T11:56:35;22.60;1.00
262;DHT22;114;48.260;10.988;2022-07-10T11:59:10;22.90;1.00
262;DHT22;114;48.260;10.988;2022-07-10T12:01:43;23.80;1.00
262;DHT22;114;48.260;10.988;2022-07-10T12:04:10;23.80;1.00
262;DHT22;114;48.260;10.988;2022-07-10T12:06:37;24.10;1.00
262;DHT22;114;48.260;10.988;2022-07-10T12:11:30;23.70;1.00
262;DHT22;114;48.260;10.988;2022-07-10T12:14:18;23.00;1.00
262;DHT22;114;48.260;10.988;2022-07-10T12:16:52;22.80;1.00
262;DHT22;114;48.260;10.988;2022-07-10T12:19:27;22.70;1.00
262;DHT22;114;48.260;10.988;2022-07-10T12:21:53;22.60;1.00
262;DHT22;114;48.260;10.988;2022-07-10T12:24:24;23.40;1.00
262;DHT22;114;48.260;10.988;2022-07-10T12:26:50;23.60;1.00
262;DHT22;114;48.260;10.988;2022-07-10T12:29:24;24.00;1.00
262;DHT22;114;48.260;10.988;2022-07-10T12:31:52;25.80;1.00
262;DHT22;114;48.260;10.988;2022-07-10T12:34:43;26.70;1.00
262;DHT22;114;48.260;10.988;2022-07-10T12:37:13;25.80;1.00
262;DHT22;114;48.260;10.988;2022-07-10T12:39:50;25.90;1.00
262;DHT22;114;48.260;10.988;2022-07-10T12:42:28;26.00;1.00
262;DHT22;114;48.260;10.988;2022-07-10T12:44:54;26.60;1.00
262;DHT22;114;48.260;10.988;2022-07-10T12:47:46;27.10;1.00
262;DHT22;114;48.260;10.988;2022-07-10T12:50:12;28.10;1.00
262;DHT22;114;48.260;10.988;2022-07-10T12:52:39;28.80;1.00
262;DHT22;114;48.260;10.988;2022-07-10T12:57:50;27.30;1.00
262;DHT22;114;48.260;10.988;2022-07-10T13:00:29;29.10;1.00
262;DHT22;114;48.260;10.988;2022-07-10T13:03:04;27.00;1.00
262;DHT22;114;48.260;10.988;2022-07-10T13:08:16;27.40;1.00
262;DHT22;114;48.260;10.988;2022-07-10T13:10:45;28.30;1.00
262;DHT22;114;48.260;10.988;2022-07-10T13:13:12;27.30;1.00
262;DHT22;114;48.260;10.988;2022-07-10T13:15:38;25.20;1.00
262;DHT22;114;48.260;10.988;2022-07-10T13:18:15;24.20;1.00
262;DHT22;114;48.260;10.988;2022-07-10T13:20:43;25.00;1.00
262;DHT22;114;48.260;10.988;2022-07-10T13:23:09;26.40;1.00
262;DHT22;114;48.260;10.988;2022-07-10T13:25:36;27.50;1.00
262;DHT22;114;48.260;10.988;2022-07-10T13:28:02;28.10;1.00
262;DHT22;114;48.260;10.988;2022-07-10T13:30:28;28.40;1.00
262;DHT22;114;48.260;10.988;2022-07-10T13:32:54;25.90;1.00
262;DHT22;114;48.260;10.988;2022-07-10T13:35:19;26.40;1.00
262;DHT22;114;48.260;10.988;2022-07-10T13:37:45;27.40;1.00
262;DHT22;114;48.260;10.988;2022-07-10T13:40:12;28.70;1.00
262;DHT22;114;48.260;10.988;2022-07-10T13:42:40;28.80;1.00
262;DHT22;114;48.260;10.988;2022-07-10T13:45:07;30.20;1.00
262;DHT22;114;48.260;10.988;2022-07-10T13:47:34;30.60;1.00
262;DHT22;114;48.260;10.988;2022-07-10T13:50:00;28.90;1.00
262;DHT22;114;48.260;10.988;2022-07-10T13:52:26;27.20;1.00
262;DHT22;114;48.260;10.988;2022-07-10T13:54:51;26.20;1.00
262;DHT22;114;48.260;10.988;2022-07-10T13:57:17;26.80;1.00
262;DHT22;114;48.260;10.988;2022-07-10T13:59:43;28.10;1.00
262;DHT22;114;48.260;10.988;2022-07-10T14:02:08;28.20;1.00
262;DHT22;114;48.260;10.988;2022-07-10T14:04:34;29.60;1.00
262;DHT22;114;48.260;10.988;2022-07-10T14:07:00;28.30;1.00
262;DHT22;114;48.260;10.988;2022-07-10T14:09:25;27.20;1.00
262;DHT22;114;48.260;10.988;2022-07-10T14:11:52;27.90;1.00
262;DHT22;114;48.260;10.988;2022-07-10T14:14:18;28.80;1.00
262;DHT22;114;48.260;10.988;2022-07-10T14:16:43;29.50;1.00
262;DHT22;114;48.260;10.988;2022-07-10T14:19:09;30.70;1.00
262;DHT22;114;48.260;10.988;2022-07-10T14:21:35;31.50;1.00
262;DHT22;114;48.260;10.988;2022-07-10T14:24:04;31.30;1.00
262;DHT22;114;48.260;10.988;2022-07-10T14:26:30;29.80;1.00
262;DHT22;114;48.260;10.988;2022-07-10T14:28:57;30.10;1.00
262;DHT22;114;48.260;10.988;2022-07-10T14:31:25;30.80;1.00
262;DHT22;114;48.260;10.988;2022-07-10T14:33:51;31.90;1.00
262;DHT22;114;48.260;10.988;2022-07-10T14:36:17;31.40;1.00
262;DHT22;114;48.260;10.988;2022-07-10T14:38:43;27.90;1.00
262;DHT22;114;48.260;10.988;2022-07-10T14:41:09;26.60;1.00
262;DHT22;114;48.260;10.988;2022-07-10T14:43:35;26.80;1.00
262;DHT22;114;48.260;10.988;2022-07-10T14:46:02;28.10;1.00
262;DHT22;114;48.260;10.988;2022-07-10T14:48:32;30.40;1.00
262;DHT22;114;48.260;10.988;2022-07-10T14:50:59;29.40;1.00
262;DHT22;114;48.260;10.988;2022-07-10T14:53:26;28.20;1.00
262;DHT22;114;48.260;10.988;2022-07-10T14:55:52;27.90;1.00
262;DHT22;114;48.260;10.988;2022-07-10T14:58:18;29.20;1.00
262;DHT22;114;48.260;10.988;2022-07-10T15:00:46;28.90;1.00
262;DHT22;114;48.260;10.988;2022-07-10T15:03:12;29.90;1.00
262;DHT22;114;48.260;10.988;2022-07-10T15:05:38;28.00;1.00
262;DHT22;114;48.260;10.988;2022-07-10T15:08:03;27.70;1.00
262;DHT22;114;48.260;10.988;2022-07-10T15:10:29;28.60;1.00
262;DHT22;114;48.260;10.988;2022-07-10T15:12:57;29.90;1.00
262;DHT22;114;48.260;10.988;2022-07-10T15:15:25;28.90;1.00
262;DHT22;114;48.260;10.988;2022-07-10T15:17:50;27.50;1.00
262;DHT22;114;48.260;10.988;2022-07-10T15:20:16;27.90;1.00
262;DHT22;114;48.260;10.988;2022-07-10T15:22:44;29.00;1.00
262;DHT22;114;48.260;10.988;2022-07-10T15:25:10;29.10;1.00
262;DHT22;114;48.260;10.988;2022-07-10T15:27:36;30.20;1.00
262;DHT22;114;48.260;10.988;2022-07-10T15:30:02;29.60;1.00
262;DHT22;114;48.260;10.988;2022-07-10T15:32:28;29.30;1.00
262;DHT22;114;48.260;10.988;2022-07-10T15:34:53;28.40;1.00
262;DHT22;114;48.260;10.988;2022-07-10T15:37:19;28.10;1.00
262;DHT22;114;48.260;10.988;2022-07-10T15:39:45;29.50;1.00
262;DHT22;114;48.260;10.988;2022-07-10T15:42:11;28.90;1.00
262;DHT22;114;48.260;10.988;2022-07-10T15:44:38;29.40;1.00
262;DHT22;114;48.260;10.988;2022-07-10T15:47:04;29.00;1.00
262;DHT22;114;48.260;10.988;2022-07-10T15:49:30;29.10;1.00
262;DHT22;114;48.260;10.988;2022-07-10T15:51:56;31.20;1.00
262;DHT22;114;48.260;10.988;2022-07-10T15:54:25;28.90;1.00
262;DHT22;114;48.260;10.988;2022-07-10T15:56:51;27.80;1.00
262;DHT22;114;48.260;10.988;2022-07-10T15:59:16;27.80;1.00
262;DHT22;114;48.260;10.988;2022-07-10T16:01:44;28.00;1.00
262;DHT22;114;48.260;10.988;2022-07-10T16:04:10;28.10;1.00
262;DHT22;114;48.260;10.988;2022-07-10T16:06:36;28.20;1.00
262;DHT22;114;48.260;10.988;2022-07-10T16:09:01;29.00;1.00
262;DHT22;114;48.260;10.988;2022-07-10T16:11:28;28.90;1.00
262;DHT22;114;48.260;10.988;2022-07-10T16:13:53;27.30;1.00
262;DHT22;114;48.260;10.988;2022-07-10T16:16:19;25.80;1.00
262;DHT22;114;48.260;10.988;2022-07-10T16:18:45;24.40;1.00
262;DHT22;114;48.260;10.988;2022-07-10T16:21:10;23.10;1.00
262;DHT22;114;48.260;10.988;2022-07-10T16:23:36;23.50;1.00
262;DHT22;114;48.260;10.988;2022-07-10T16:26:02;25.30;1.00
262;DHT22;114;48.260;10.988;2022-07-10T16:28:31;26.60;1.00
262;DHT22;114;48.260;10.988;2022-07-10T16:30:57;28.20;1.00
262;DHT22;114;48.260;10.988;2022-07-10T16:33:24;28.70;1.00
262;DHT22;114;48.260;10.988;2022-07-10T16:35:51;29.40;1.00
262;DHT22;114;48.260;10.988;2022-07-10T16:38:17;29.70;1.00
262;DHT22;114;48.260;10.988;2022-07-10T16:40:43;29.50;1.00
262;DHT22;114;48.260;10.988;2022-07-10T16:43:11;28.00;1.00
262;DHT22;114;48.260;10.988;2022-07-10T16:45:38;27.10;1.00
262;DHT22;114;48.260;10.988;2022-07-10T16:48:04;27.60;1.00
262;DHT22;114;48.260;10.988;2022-07-10T16:50:30;27.80;1.00
262;DHT22;114;48.260;10.988;2022-07-10T16:52:56;27.40;1.00
262;DHT22;114;48.260;10.988;2022-07-10T16:55:22;27.80;1.00
262;DHT22;114;48.260;10.988;2022-07-10T16:57:47;28.10;1.00
262;DHT22;114;48.260;10.988;2022-07-10T17:00:13;27.50;1.00
262;DHT22;114;48.260;10.988;2022-07-10T17:02:42;27.50;1.00
262;DHT22;114;48.260;10.988;2022-07-10T17:05:09;27.60;1.00
262;DHT22;114;48.260;10.988;2022-07-10T17:07:39;27.60;1.00